Accueil
METAR-TAF:

METAR-TAF

Aéroports :

Dübendorf, Suisse

latitude: 47-23-55N, longitude: 8-38-53E, altitude: 448 m

Observation

Le bulletin a été fait il y a 52 minutes, à 16:50 UTC
Vent 3 kt de nord-est, variant entre nord-ouest et est
Température 17°C
Humidité 52%
Pression 1019 hPa
Visibilité 10 km ou plus

METAR: LSMD 211650Z AUTO 04003KT 320V100 9999NDV NCD 17/07 Q1019 RMK

Heure: 19:42 (17:42 UTC)


TAF: absent

Observations et prévisions météorologiques de plus de 4000 aéroports (messages METAR et TAF).

Les stations disponibles sont représentées par des disques jaunes et rouges sur la carte.

Passer la souris dessus pour voir le nom de la station.

Cliquer dessus pour voir les observations et prévisions météorologiques.

Pour changer de carte: cliquez sur les boutons verts avec une croix noire pour zoomer, sur le bouton vert avec un tiret pour effectuer un zoom arrière, ou sur les flèches vertes pour les cartes adjacentes.


METAR-TAF: